Time;durP1;ratioP1;P1;durP2;ratioP2;P2;SDS_P1;SDS_P2;PMS_P1;PMS_P2;Temp;Humidity;BMP_temperature;BMP_pressure;BME280_temperature;BME280_humidity;BME280_pressure;Samples;Min_cycle;Max_cycle;Signal;HPM_P1;HPM_P2
2020/12/21 00:02:21;;;;;;;9.15;6.10;;;8.50;91.80;;;;;;10042805;28;20030;-62
2020/12/21 00:07:11;;;;;;;8.55;5.47;;;8.50;91.80;;;;;;10033687;28;20463;-62
2020/12/21 00:12:02;;;;;;;9.55;7.15;;;8.40;91.80;;;;;;10036544;28;20038;-63
2020/12/21 00:16:54;;;;;;;11.38;6.43;;;8.30;91.80;;;;;;10039591;28;20438;-62
2020/12/21 00:21:46;;;;;;;9.15;5.55;;;8.30;91.60;;;;;;10040695;28;20164;-62
2020/12/21 00:26:37;;;;;;;12.90;6.68;;;8.30;91.70;;;;;;10039959;28;20045;-63
2020/12/21 00:31:30;;;;;;;10.40;5.88;;;8.30;91.70;;;;;;10041340;28;20507;-63
2020/12/21 00:36:21;;;;;;;9.23;5.65;;;8.20;91.70;;;;;;10043766;28;20025;-63
2020/12/21 00:41:14;;;;;;;11.20;5.88;;;8.20;91.70;;;;;;10040765;28;20028;-63
2020/12/21 00:46:04;;;;;;;8.77;5.43;;;8.20;91.70;;;;;;10041454;28;20579;-63
2020/12/21 00:50:55;;;;;;;7.78;5.25;;;8.10;91.70;;;;;;10038515;28;20037;-63
2020/12/21 00:55:46;;;;;;;9.43;5.65;;;8.10;91.80;;;;;;10042452;28;20100;-63
2020/12/21 01:00:36;;;;;;;6.90;4.88;;;8.00;91.80;;;;;;10040339;28;20034;-63
2020/12/21 01:05:27;;;;;;;6.93;4.80;;;8.00;91.80;;;;;;10038609;28;20031;-63
2020/12/21 01:10:17;;;;;;;8.73;5.15;;;8.00;91.80;;;;;;10038981;28;20032;-63
2020/12/21 01:15:08;;;;;;;8.70;5.13;;;8.00;91.80;;;;;;10040523;28;20382;-63
2020/12/21 01:19:58;;;;;;;7.40;4.93;;;8.00;91.80;;;;;;10041846;28;20403;-63
2020/12/21 01:24:49;;;;;;;9.10;5.25;;;8.00;91.70;;;;;;10039652;28;20026;-63
2020/12/21 01:29:39;;;;;;;8.43;5.30;;;7.90;91.80;;;;;;10043966;28;20029;-60
2020/12/21 01:34:30;;;;;;;7.38;4.63;;;7.90;91.70;;;;;;10046860;28;20026;-62
2020/12/21 01:39:20;;;;;;;6.85;4.93;;;7.80;91.90;;;;;;10040721;28;20041;-62
2020/12/21 01:44:11;;;;;;;7.72;3.92;;;7.90;91.90;;;;;;10037894;28;20034;-62
2020/12/21 01:49:02;;;;;;;6.00;4.28;;;7.80;92.00;;;;;;10036700;28;20092;-62
2020/12/21 01:53:54;;;;;;;7.40;4.63;;;7.80;91.90;;;;;;10041316;28;20045;-63
2020/12/21 01:58:45;;;;;;;6.53;3.75;;;7.80;91.90;;;;;;10041074;28;20036;-62
2020/12/21 02:03:36;;;;;;;5.75;4.30;;;7.80;91.70;;;;;;10039497;28;20033;-62
2020/12/21 02:08:26;;;;;;;9.05;4.80;;;7.80;91.70;;;;;;10041142;28;20041;-62
2020/12/21 02:13:17;;;;;;;7.70;4.35;;;7.80;91.90;;;;;;10037669;28;20428;-63
2020/12/21 02:18:07;;;;;;;6.40;4.47;;;7.80;91.80;;;;;;10042399;28;20049;-63
2020/12/21 02:22:58;;;;;;;4.47;3.50;;;7.80;91.80;;;;;;10039714;28;20057;-62
2020/12/21 02:27:49;;;;;;;6.20;4.40;;;7.80;91.90;;;;;;10041457;28;20512;-62
2020/12/21 02:32:40;;;;;;;5.18;3.80;;;7.80;92.00;;;;;;10042954;28;20033;-63
2020/12/21 02:37:30;;;;;;;5.95;3.50;;;8.00;92.00;;;;;;10038242;28;20447;-63
2020/12/21 02:42:21;;;;;;;6.50;3.70;;;8.00;92.00;;;;;;10035452;28;20500;-63
2020/12/21 02:47:11;;;;;;;7.22;3.53;;;8.00;92.10;;;;;;10040955;28;20053;-63
2020/12/21 02:52:02;;;;;;;6.00;3.45;;;8.10;92.20;;;;;;10040565;28;20025;-62
2020/12/21 02:56:55;;;;;;;6.82;4.22;;;8.10;92.30;;;;;;10034361;28;20383;-59
2020/12/21 03:01:46;;;;;;;5.28;3.63;;;8.10;92.40;;;;;;10039304;28;20419;-59
2020/12/21 03:06:37;;;;;;;6.05;3.45;;;8.20;92.40;;;;;;10041200;28;20041;-62
2020/12/21 03:11:27;;;;;;;8.30;4.05;;;8.30;92.40;;;;;;10040395;28;20029;-63
2020/12/21 03:16:18;;;;;;;7.60;4.72;;;8.30;92.40;;;;;;10040064;28;20270;-60
2020/12/21 03:21:08;;;;;;;6.70;4.30;;;8.30;92.30;;;;;;10043393;28;20049;-59
2020/12/21 03:25:59;;;;;;;5.82;3.55;;;8.40;92.30;;;;;;10033205;28;20513;-63
2020/12/21 03:30:50;;;;;;;8.23;4.25;;;8.50;92.30;;;;;;10035556;28;20028;-60
2020/12/21 03:35:40;;;;;;;6.88;4.47;;;8.40;92.20;;;;;;10037960;28;20026;-63
2020/12/21 03:40:31;;;;;;;5.03;3.72;;;8.40;92.20;;;;;;10036695;28;20052;-63
2020/12/21 03:45:21;;;;;;;8.63;4.55;;;8.40;92.20;;;;;;10040410;28;20029;-60
2020/12/21 03:50:12;;;;;;;7.60;4.20;;;8.50;92.20;;;;;;10035684;28;20054;-60
2020/12/21 03:55:03;;;;;;;6.85;5.13;;;8.40;92.10;;;;;;10035276;28;20033;-63
2020/12/21 03:59:54;;;;;;;6.30;4.57;;;8.40;92.40;;;;;;10032889;28;20037;-59
2020/12/21 04:04:45;;;;;;;7.53;4.47;;;8.50;92.20;;;;;;10036786;28;20532;-59
2020/12/21 04:09:35;;;;;;;7.28;4.43;;;8.40;92.10;;;;;;10039875;28;20029;-60
2020/12/21 04:14:26;;;;;;;8.82;3.88;;;8.50;92.00;;;;;;10036848;28;20026;-60
2020/12/21 04:19:16;;;;;;;6.78;3.80;;;8.40;91.90;;;;;;10036698;28;20031;-60
2020/12/21 04:24:07;;;;;;;6.03;3.30;;;8.30;91.80;;;;;;10042624;28;20037;-63
2020/12/21 04:28:57;;;;;;;5.75;4.30;;;8.30;92.00;;;;;;10037017;28;20057;-59
2020/12/21 04:33:48;;;;;;;8.48;3.78;;;8.20;92.00;;;;;;10036751;28;20033;-63
2020/12/21 04:38:39;;;;;;;6.80;3.97;;;8.20;92.10;;;;;;10042320;28;20041;-62
2020/12/21 04:43:32;;;;;;;7.15;3.78;;;8.30;92.00;;;;;;10030430;28;20120;-60
2020/12/21 04:48:23;;;;;;;5.70;3.95;;;8.30;92.10;;;;;;10040037;28;20179;-61
2020/12/21 04:53:14;;;;;;;5.75;4.22;;;8.20;92.10;;;;;;10026355;28;20022;-62
2020/12/21 04:58:05;;;;;;;7.82;4.65;;;8.30;92.10;;;;;;10036487;28;20570;-60
2020/12/21 05:02:56;;;;;;;6.45;3.80;;;8.30;92.00;;;;;;10041969;28;20076;-63
2020/12/21 05:07:46;;;;;;;6.32;4.25;;;8.30;92.10;;;;;;10042029;28;20356;-62
2020/12/21 05:12:37;;;;;;;4.63;3.38;;;8.30;92.10;;;;;;10043048;28;20040;-59
2020/12/21 05:17:27;;;;;;;5.90;3.30;;;8.30;92.10;;;;;;10045163;28;20057;-62
2020/12/21 05:22:21;;;;;;;7.35;5.10;;;8.30;92.10;;;;;;10038948;28;20064;-60
2020/12/21 05:27:18;;;;;;;4.93;3.70;;;8.30;92.00;;;;;;10039483;28;20124;-60
2020/12/21 05:32:18;;;;;;;7.57;5.10;;;8.20;92.10;;;;;;10036374;28;20579;-63
2020/12/21 05:37:13;;;;;;;7.05;4.25;;;8.20;92.10;;;;;;10040109;28;20069;-60
2020/12/21 05:42:12;;;;;;;8.23;4.47;;;8.10;92.40;;;;;;10042055;28;20412;-60
2020/12/21 05:47:05;;;;;;;5.57;3.85;;;8.20;92.10;;;;;;10043811;28;20412;-60
2020/12/21 05:52:04;;;;;;;6.97;4.97;;;8.10;92.10;;;;;;10039385;28;20168;-60
2020/12/21 05:56:55;;;;;;;8.30;4.80;;;8.10;92.00;;;;;;10035726;28;20029;-63
2020/12/21 06:01:58;;;;;;;8.93;4.78;;;8.00;92.00;;;;;;10041898;28;20499;-64
2020/12/21 06:06:51;;;;;;;7.57;4.20;;;8.00;92.00;;;;;;10045219;28;20510;-59
2020/12/21 06:11:42;;;;;;;7.85;4.57;;;8.00;92.00;;;;;;10040177;28;20335;-60
2020/12/21 06:16:36;;;;;;;6.07;4.30;;;8.00;92.30;;;;;;10047938;28;20040;-60
2020/12/21 06:21:50;;;;;;;7.80;4.45;;;8.10;91.90;;;;;;10038892;28;20303;-60
2020/12/21 06:26:41;;;;;;;8.60;5.03;;;8.10;92.00;;;;;;10038325;28;20037;-61
2020/12/21 06:31:49;;;;;;;7.18;4.60;;;8.10;91.90;;;;;;10043317;28;20029;-61
2020/12/21 06:36:39;;;;;;;7.00;4.75;;;8.20;91.80;;;;;;10041241;28;20040;-64
2020/12/21 06:41:30;;;;;;;4.90;3.60;;;8.20;91.80;;;;;;10039232;28;20036;-61
2020/12/21 06:46:21;;;;;;;5.38;4.47;;;8.20;91.80;;;;;;10041739;28;20061;-63
2020/12/21 06:51:13;;;;;;;6.22;4.20;;;8.20;91.80;;;;;;10035738;28;20050;-64
2020/12/21 06:56:13;;;;;;;8.65;4.78;;;8.20;91.80;;;;;;10063682;28;21319;-60
2020/12/21 07:01:04;;;;;;;6.03;3.78;;;8.20;91.70;;;;;;10038881;28;20057;-60
2020/12/21 07:06:01;;;;;;;6.88;4.13;;;8.10;91.70;;;;;;10040879;28;20064;-63
2020/12/21 07:10:56;;;;;;;6.72;3.92;;;8.20;91.80;;;;;;10035833;28;20420;-61
2020/12/21 07:15:47;;;;;;;11.77;4.67;;;8.10;91.70;;;;;;10033210;28;20033;-61
2020/12/21 07:20:41;;;;;;;7.22;4.07;;;8.10;91.80;;;;;;10038482;28;20286;-60
2020/12/21 07:25:31;;;;;;;6.75;3.85;;;8.10;91.70;;;;;;10033038;28;20034;-63
2020/12/21 07:30:26;;;;;;;5.25;3.40;;;8.10;91.70;;;;;;10037749;28;20034;-63
2020/12/21 07:35:17;;;;;;;5.07;4.20;;;8.10;91.80;;;;;;10035554;28;21681;-57
2020/12/21 07:40:20;;;;;;;8.40;3.72;;;8.10;91.70;;;;;;10036736;28;20057;-61
2020/12/21 07:45:12;;;;;;;8.70;4.93;;;8.20;91.70;;;;;;10032724;28;20556;-60
2020/12/21 07:50:06;;;;;;;7.28;3.92;;;8.10;91.70;;;;;;10033045;28;20471;-61
2020/12/21 07:54:59;;;;;;;6.97;4.53;;;8.20;91.70;;;;;;10040541;28;20095;-60
2020/12/21 07:59:57;;;;;;;6.15;3.92;;;8.20;91.70;;;;;;10035553;28;20253;-62
2020/12/21 08:04:47;;;;;;;6.75;4.10;;;8.20;91.70;;;;;;10039478;28;20415;-62
2020/12/21 08:09:39;;;;;;;7.22;4.38;;;8.30;91.70;;;;;;10034011;28;20025;-63
2020/12/21 08:14:29;;;;;;;9.07;4.72;;;8.20;91.70;;;;;;10035793;28;20042;-64
2020/12/21 08:19:23;;;;;;;6.68;4.63;;;8.20;91.70;;;;;;10040189;28;20056;-63
2020/12/21 08:24:14;;;;;;;7.13;4.43;;;8.30;91.70;;;;;;10039406;28;20038;-61
2020/12/21 08:29:05;;;;;;;9.68;5.18;;;8.30;91.60;;;;;;10032672;28;20043;-61
2020/12/21 08:34:00;;;;;;;9.52;4.70;;;8.40;91.60;;;;;;10035597;28;20041;-62
2020/12/21 08:38:52;;;;;;;6.88;4.43;;;8.50;91.60;;;;;;10047567;28;20033;-61
2020/12/21 08:43:43;;;;;;;8.85;5.07;;;8.50;91.50;;;;;;10042150;28;20045;-63
2020/12/21 08:48:37;;;;;;;8.50;4.95;;;8.50;91.60;;;;;;10045084;28;20515;-63
2020/12/21 08:53:27;;;;;;;8.27;5.25;;;8.50;91.40;;;;;;10045208;28;20038;-60
2020/12/21 08:58:18;;;;;;;7.35;4.45;;;8.50;91.40;;;;;;10046171;28;20030;-63
2020/12/21 09:03:08;;;;;;;8.30;3.80;;;8.50;91.50;;;;;;10053332;28;20412;-63
2020/12/21 09:07:59;;;;;;;6.65;3.90;;;8.70;91.40;;;;;;10049438;28;20033;-63
2020/12/21 09:12:49;;;;;;;5.65;3.70;;;8.60;91.40;;;;;;10048061;28;20510;-63
2020/12/21 09:17:40;;;;;;;5.60;3.20;;;8.70;91.30;;;;;;10042545;28;20495;-63
2020/12/21 09:22:30;;;;;;;4.70;2.97;;;8.70;91.30;;;;;;10045068;28;20036;-62
2020/12/21 09:27:21;;;;;;;6.07;3.30;;;8.70;91.30;;;;;;10040854;28;20022;-63
2020/12/21 09:32:12;;;;;;;6.72;4.07;;;8.80;91.20;;;;;;10045556;28;20033;-64
2020/12/21 09:37:02;;;;;;;4.28;2.55;;;8.80;91.10;;;;;;10037712;28;20033;-62
2020/12/21 09:41:54;;;;;;;6.80;3.88;;;8.80;91.10;;;;;;10033835;28;20034;-61
2020/12/21 09:46:45;;;;;;;5.47;3.22;;;8.90;91.00;;;;;;10042589;28;20021;-62
2020/12/21 09:51:35;;;;;;;8.68;4.53;;;8.90;91.00;;;;;;10040922;28;20042;-62
2020/12/21 09:56:26;;;;;;;6.72;3.67;;;8.90;90.90;;;;;;10041898;28;20045;-61
2020/12/21 10:01:17;;;;;;;4.93;3.22;;;8.80;91.00;;;;;;10039359;28;20038;-60
2020/12/21 10:06:08;;;;;;;7.38;3.97;;;8.80;90.90;;;;;;10038658;28;20033;-63
2020/12/21 10:10:59;;;;;;;4.85;3.63;;;8.80;90.90;;;;;;10038962;28;20033;-61
2020/12/21 10:15:49;;;;;;;5.22;3.03;;;8.80;90.80;;;;;;10042208;28;20443;-61
2020/12/21 10:20:42;;;;;;;8.57;4.45;;;8.80;90.70;;;;;;10040199;28;20636;-66
2020/12/21 10:25:33;;;;;;;6.70;4.40;;;8.80;90.70;;;;;;10039509;28;20025;-63
2020/12/21 10:30:23;;;;;;;6.20;3.92;;;8.80;90.60;;;;;;10044714;28;20080;-63
2020/12/21 10:35:14;;;;;;;10.98;4.47;;;8.90;90.50;;;;;;10039435;28;20030;-62
2020/12/21 10:40:05;;;;;;;7.30;4.63;;;8.90;90.50;;;;;;10044712;28;20377;-60
2020/12/21 10:44:56;;;;;;;10.07;4.45;;;8.80;90.40;;;;;;10041520;28;20040;-62
2020/12/21 10:49:46;;;;;;;10.73;4.82;;;8.80;90.50;;;;;;10032654;28;20060;-59
2020/12/21 10:54:37;;;;;;;6.32;4.30;;;8.70;90.50;;;;;;10043075;28;20492;-60
2020/12/21 10:59:27;;;;;;;8.75;3.85;;;8.90;90.40;;;;;;10040569;28;20033;-62
2020/12/21 11:04:18;;;;;;;9.52;5.35;;;8.90;90.30;;;;;;10043065;28;20029;-60
2020/12/21 11:09:08;;;;;;;8.00;4.43;;;8.90;90.30;;;;;;10039139;28;20037;-62
2020/12/21 11:13:59;;;;;;;5.63;3.88;;;8.90;90.30;;;;;;10038997;28;20130;-62
2020/12/21 11:18:50;;;;;;;9.23;4.60;;;9.00;90.20;;;;;;10034443;28;20026;-62
2020/12/21 11:23:41;;;;;;;7.80;4.75;;;9.10;90.10;;;;;;10039674;28;20043;-61
2020/12/21 11:28:31;;;;;;;9.00;5.05;;;9.20;90.00;;;;;;10035119;28;20447;-62
2020/12/21 11:33:22;;;;;;;9.55;4.78;;;9.30;90.00;;;;;;10038754;28;20038;-62
2020/12/21 11:38:15;;;;;;;9.65;5.10;;;9.30;90.20;;;;;;10030909;28;20025;-58
2020/12/21 11:43:06;;;;;;;8.48;4.30;;;9.60;89.70;;;;;;10046633;28;20471;-60
2020/12/21 11:47:56;;;;;;;7.78;5.22;;;9.60;89.50;;;;;;10031201;28;20414;-64
2020/12/21 11:52:47;;;;;;;8.00;4.53;;;9.70;89.40;;;;;;10028267;28;20026;-63
2020/12/21 11:57:37;;;;;;;8.18;4.85;;;9.80;89.50;;;;;;10039051;28;20030;-64
2020/12/21 12:02:28;;;;;;;7.07;3.95;;;9.90;89.30;;;;;;10037097;28;20038;-64
2020/12/21 12:07:19;;;;;;;7.15;4.20;;;9.90;89.00;;;;;;10036668;28;20495;-63
2020/12/21 12:12:09;;;;;;;8.98;4.72;;;9.90;89.10;;;;;;10043659;28;20037;-63
2020/12/21 12:17:00;;;;;;;6.05;3.75;;;10.10;89.10;;;;;;10044050;28;20508;-63
2020/12/21 12:21:51;;;;;;;13.57;5.03;;;10.30;88.50;;;;;;10043673;28;21694;-63
2020/12/21 12:26:42;;;;;;;8.68;4.18;;;10.00;88.50;;;;;;10047955;28;20029;-65
2020/12/21 12:31:32;;;;;;;8.27;4.43;;;9.90;88.60;;;;;;10050808;28;20427;-63
2020/12/21 12:36:25;;;;;;;11.23;4.90;;;9.80;88.80;;;;;;10049698;28;20026;-65
2020/12/21 12:41:15;;;;;;;8.48;5.43;;;9.80;88.80;;;;;;10050269;28;20112;-66
2020/12/21 12:46:07;;;;;;;12.18;5.50;;;9.80;88.70;;;;;;10045464;28;20067;-65
2020/12/21 12:50:57;;;;;;;8.80;5.18;;;9.70;88.60;;;;;;10053042;28;20045;-67
2020/12/21 12:55:48;;;;;;;9.63;4.70;;;9.80;88.50;;;;;;10043489;28;20026;-65
2020/12/21 13:00:40;;;;;;;10.68;4.95;;;9.80;88.40;;;;;;10044342;28;20052;-64
2020/12/21 13:05:30;;;;;;;11.90;5.75;;;9.80;88.40;;;;;;10046972;28;20065;-65
2020/12/21 13:10:23;;;;;;;9.07;4.68;;;10.00;87.90;;;;;;10048549;28;20487;-65
2020/12/21 13:15:28;;;;;;;6.50;4.50;;;9.90;87.80;;;;;;10049448;28;20070;-64
2020/12/21 13:20:19;;;;;;;6.78;4.25;;;9.90;88.00;;;;;;10047784;28;20042;-67
2020/12/21 13:25:09;;;;;;;12.07;4.88;;;9.90;88.00;;;;;;10038953;28;20063;-66
2020/12/21 13:30:00;;;;;;;9.63;5.72;;;9.80;87.90;;;;;;10038477;28;20519;-64
2020/12/21 13:34:51;;;;;;;9.27;4.55;;;10.00;87.60;;;;;;10043485;28;20392;-66
2020/12/21 13:39:42;;;;;;;10.00;4.70;;;9.90;87.60;;;;;;10044240;28;22718;-65
2020/12/21 13:44:33;;;;;;;11.30;5.13;;;9.90;87.50;;;;;;10056225;22;20049;-66
2020/12/21 13:49:24;;;;;;;9.13;4.75;;;9.90;87.60;;;;;;10120522;28;20333;-65
2020/12/21 13:54:15;;;;;;;8.75;5.05;;;9.90;87.60;;;;;;10123639;28;20036;-67
2020/12/21 13:59:06;;;;;;;9.70;5.38;;;9.80;87.60;;;;;;10122680;28;20028;-65
2020/12/21 14:03:56;;;;;;;8.90;4.68;;;9.80;87.60;;;;;;10123954;28;20033;-66
2020/12/21 14:08:47;;;;;;;9.13;4.95;;;9.80;87.50;;;;;;10127845;28;20398;-64
2020/12/21 14:13:41;;;;;;;10.70;5.97;;;9.80;87.60;;;;;;10122782;28;20089;-63
2020/12/21 14:18:32;;;;;;;9.65;4.78;;;9.80;87.50;;;;;;10123460;28;20036;-64
2020/12/21 14:23:22;;;;;;;10.63;5.50;;;9.80;87.60;;;;;;10128278;28;20020;-64
2020/12/21 14:28:13;;;;;;;9.43;5.15;;;9.80;87.70;;;;;;10121689;28;20128;-65
2020/12/21 14:33:03;;;;;;;9.65;5.38;;;9.80;87.50;;;;;;10121665;28;20070;-64
2020/12/21 14:37:54;;;;;;;10.00;4.60;;;9.80;87.70;;;;;;10125618;28;20040;-64
2020/12/21 14:42:44;;;;;;;8.10;5.22;;;9.80;87.80;;;;;;10120748;28;20515;-63
2020/12/21 14:47:35;;;;;;;10.90;5.45;;;9.80;87.80;;;;;;10118417;28;20533;-64
2020/12/21 14:52:27;;;;;;;7.57;4.80;;;9.90;87.50;;;;;;10109815;28;20451;-65
2020/12/21 14:57:18;;;;;;;9.90;6.10;;;9.90;87.70;;;;;;10108011;28;20074;-66
2020/12/21 15:02:08;;;;;;;11.73;5.57;;;9.80;87.80;;;;;;10107754;28;20040;-66
2020/12/21 15:07:03;;;;;;;8.40;5.05;;;9.80;88.00;;;;;;10105901;28;20466;-65
2020/12/21 15:11:53;;;;;;;9.10;5.05;;;9.80;87.90;;;;;;10113582;28;20044;-64
2020/12/21 15:16:44;;;;;;;7.95;4.85;;;9.80;88.00;;;;;;10108557;28;20064;-65
2020/12/21 15:21:35;;;;;;;11.50;4.70;;;9.80;88.00;;;;;;10111859;28;20051;-63
2020/12/21 15:26:25;;;;;;;8.10;3.85;;;9.80;88.10;;;;;;10110476;28;20037;-64
2020/12/21 15:31:16;;;;;;;8.50;5.07;;;9.80;88.00;;;;;;10111978;28;20040;-64
2020/12/21 15:36:06;;;;;;;8.57;4.53;;;9.90;88.00;;;;;;10105576;28;20456;-66
2020/12/21 15:41:00;;;;;;;10.15;4.55;;;9.90;87.90;;;;;;10072325;28;20213;-66
2020/12/21 15:45:50;;;;;;;5.50;3.60;;;9.90;87.90;;;;;;10102316;28;20057;-65
2020/12/21 15:50:41;;;;;;;5.05;3.47;;;9.90;87.80;;;;;;10093402;28;20021;-64
2020/12/21 15:55:31;;;;;;;4.80;2.97;;;10.00;87.90;;;;;;10096275;28;20029;-64
2020/12/21 16:00:22;;;;;;;6.47;3.03;;;10.00;87.70;;;;;;10107040;28;20029;-63
2020/12/21 16:05:13;;;;;;;6.68;4.50;;;10.00;87.60;;;;;;10103854;28;20032;-64
2020/12/21 16:10:10;;;;;;;6.32;3.67;;;10.10;87.40;;;;;;10106996;28;20029;-64
2020/12/21 16:15:01;;;;;;;7.93;3.85;;;10.10;87.30;;;;;;10109274;28;20443;-64
2020/12/21 16:19:51;;;;;;;7.75;3.92;;;10.20;87.30;;;;;;10104823;28;20041;-63
2020/12/21 16:24:42;;;;;;;4.38;2.90;;;10.20;87.20;;;;;;10111370;28;20029;-63
2020/12/21 16:29:33;;;;;;;5.78;3.70;;;10.20;87.00;;;;;;10113127;28;20054;-63
2020/12/21 16:34:24;;;;;;;6.18;3.42;;;10.20;86.80;;;;;;10110041;28;20503;-63
2020/12/21 16:39:16;;;;;;;8.15;3.78;;;10.30;86.80;;;;;;10105849;28;20020;-64
2020/12/21 16:44:07;;;;;;;8.77;3.72;;;10.20;86.80;;;;;;10104057;28;20538;-65
2020/12/21 16:48:58;;;;;;;6.43;4.15;;;10.20;87.00;;;;;;10112490;28;20067;-63
2020/12/21 16:53:48;;;;;;;7.10;4.47;;;10.10;87.10;;;;;;10104338;28;20029;-63
2020/12/21 16:58:43;;;;;;;11.73;5.15;;;10.00;87.30;;;;;;10118028;28;20047;-63
2020/12/21 17:03:33;;;;;;;9.18;4.70;;;10.00;87.20;;;;;;10114265;28;20501;-63
2020/12/21 17:08:24;;;;;;;8.32;4.50;;;10.00;87.30;;;;;;10118247;28;20033;-63
2020/12/21 17:13:14;;;;;;;9.25;4.28;;;9.90;87.40;;;;;;10115676;28;20024;-66
2020/12/21 17:18:05;;;;;;;11.52;4.72;;;9.90;87.50;;;;;;10115165;28;20029;-63
2020/12/21 17:22:56;;;;;;;10.15;4.40;;;10.00;87.50;;;;;;10112204;28;20033;-64
2020/12/21 17:27:46;;;;;;;13.05;5.22;;;10.00;87.40;;;;;;10114623;28;20037;-64
2020/12/21 17:32:37;;;;;;;7.15;4.28;;;10.00;87.50;;;;;;10113926;28;20039;-63
2020/12/21 17:37:27;;;;;;;10.68;4.75;;;10.00;87.50;;;;;;10115297;28;20563;-63
2020/12/21 17:42:18;;;;;;;7.25;3.80;;;10.00;87.60;;;;;;10113979;28;20029;-63
2020/12/21 17:47:09;;;;;;;9.05;3.97;;;9.90;87.80;;;;;;10110922;28;20083;-64
2020/12/21 17:51:59;;;;;;;10.63;4.97;;;10.00;87.80;;;;;;10111546;28;20098;-61
2020/12/21 17:56:50;;;;;;;10.45;4.15;;;9.90;88.00;;;;;;10101123;28;20043;-60
2020/12/21 18:01:40;;;;;;;9.45;4.50;;;9.90;88.00;;;;;;10110013;28;20032;-61
2020/12/21 18:06:31;;;;;;;8.48;5.40;;;9.90;88.10;;;;;;10114771;28;22346;-66
2020/12/21 18:11:22;;;;;;;7.43;4.38;;;9.90;88.40;;;;;;10118668;28;20058;-65
2020/12/21 18:16:12;;;;;;;8.35;3.95;;;9.90;88.60;;;;;;10112101;28;20035;-63
2020/12/21 18:21:03;;;;;;;4.88;3.05;;;9.90;88.60;;;;;;10111991;28;20028;-63
2020/12/21 18:25:55;;;;;;;4.47;2.63;;;9.90;88.60;;;;;;10110299;28;20039;-62
2020/12/21 18:30:46;;;;;;;3.75;2.65;;;10.00;88.60;;;;;;10113308;28;20029;-64
2020/12/21 18:35:36;;;;;;;4.65;2.42;;;10.00;88.50;;;;;;10112285;28;20040;-62
2020/12/21 18:40:27;;;;;;;3.25;2.00;;;10.10;88.60;;;;;;10115867;28;20053;-64
2020/12/21 18:45:17;;;;;;;4.13;2.13;;;10.10;88.50;;;;;;10112280;28;20045;-63
2020/12/21 18:50:08;;;;;;;3.17;1.85;;;10.10;88.40;;;;;;10113640;28;20245;-63
2020/12/21 18:54:58;;;;;;;1.85;1.30;;;10.10;88.40;;;;;;10114194;28;20021;-64
2020/12/21 18:59:49;;;;;;;4.88;1.58;;;10.10;88.40;;;;;;10112740;28;20036;-63
2020/12/21 19:05:08;;;;;;;2.42;1.60;;;10.20;88.40;;;;;;10115105;28;20032;-67
2020/12/21 19:10:00;;;;;;;2.33;1.50;;;10.20;88.60;;;;;;10106854;28;20047;-63
2020/12/21 19:14:50;;;;;;;2.20;1.75;;;10.10;88.70;;;;;;10110176;28;20028;-64
2020/12/21 19:19:41;;;;;;;1.80;1.20;;;10.10;88.90;;;;;;10108334;28;20665;-64
2020/12/21 19:24:31;;;;;;;1.65;1.10;;;10.00;89.10;;;;;;10114972;28;20040;-65
2020/12/21 19:29:22;;;;;;;2.33;1.90;;;10.00;89.20;;;;;;10109224;28;20032;-65
2020/12/21 19:34:24;;;;;;;2.30;1.50;;;10.00;89.40;;;;;;10109114;28;20044;-66
2020/12/21 19:39:15;;;;;;;1.63;1.40;;;10.00;89.60;;;;;;10108613;28;20104;-65
2020/12/21 19:44:06;;;;;;;4.40;1.67;;;10.00;89.70;;;;;;10112514;28;20037;-65
2020/12/21 19:48:57;;;;;;;2.65;1.27;;;10.10;89.60;;;;;;10108730;28;20491;-65
2020/12/21 19:53:47;;;;;;;1.85;1.10;;;10.20;89.60;;;;;;10109160;28;20494;-66
2020/12/21 19:58:38;;;;;;;2.45;1.27;;;10.10;89.60;;;;;;10112513;28;20040;-69
2020/12/21 20:03:28;;;;;;;2.22;1.02;;;10.10;90.00;;;;;;10109795;28;20498;-69
2020/12/21 20:08:20;;;;;;;1.48;1.13;;;10.10;90.00;;;;;;10116539;28;20036;-68
2020/12/21 20:13:11;;;;;;;1.35;1.10;;;10.20;90.00;;;;;;10112289;28;20173;-64
2020/12/21 20:18:02;;;;;;;4.78;1.38;;;10.20;90.10;;;;;;10114533;28;20036;-68
2020/12/21 20:22:53;;;;;;;1.52;0.90;;;10.20;90.10;;;;;;10114642;28;20029;-67
2020/12/21 20:27:43;;;;;;;2.78;1.27;;;10.20;90.10;;;;;;10110306;28;20025;-66
2020/12/21 20:32:34;;;;;;;1.45;1.00;;;10.20;90.40;;;;;;10117069;28;20028;-68
2020/12/21 20:37:25;;;;;;;0.85;0.77;;;10.30;90.20;;;;;;10116336;28;20033;-69
2020/12/21 20:42:16;;;;;;;2.08;1.02;;;10.30;90.30;;;;;;10120845;28;20040;-66
2020/12/21 20:47:07;;;;;;;1.80;0.85;;;10.30;90.30;;;;;;10122153;28;20495;-65
2020/12/21 20:51:58;;;;;;;3.65;1.33;;;10.30;90.40;;;;;;10114414;28;20033;-66
2020/12/21 20:56:49;;;;;;;1.05;0.88;;;10.30;90.40;;;;;;10117552;28;20121;-65
2020/12/21 21:01:40;;;;;;;1.55;1.20;;;10.30;90.50;;;;;;10114973;28;20576;-64
2020/12/21 21:06:32;;;;;;;1.58;1.45;;;10.20;90.50;;;;;;10115817;28;20064;-64
2020/12/21 21:11:35;;;;;;;1.00;0.90;;;10.30;90.70;;;;;;10113833;28;20045;-64
2020/12/21 21:16:26;;;;;;;1.88;1.02;;;10.30;90.60;;;;;;10114321;28;20139;-65
2020/12/21 21:21:16;;;;;;;1.40;0.98;;;10.30;90.60;;;;;;10118011;28;20029;-66
2020/12/21 21:26:14;;;;;;;4.50;1.60;;;10.30;90.70;;;;;;10117944;28;20077;-65
2020/12/21 21:31:04;;;;;;;1.52;0.95;;;10.30;90.80;;;;;;10120447;28;20220;-64
2020/12/21 21:35:55;;;;;;;2.45;1.30;;;10.30;90.80;;;;;;10117829;28;20082;-63
2020/12/21 21:40:45;;;;;;;2.58;1.10;;;10.40;90.80;;;;;;10115590;28;20033;-64
2020/12/21 21:45:36;;;;;;;3.10;1.20;;;10.40;90.70;;;;;;10116490;28;20411;-64
2020/12/21 21:50:27;;;;;;;4.47;1.40;;;10.40;90.70;;;;;;10115177;28;20033;-65
2020/12/21 21:55:17;;;;;;;1.85;1.10;;;10.40;90.80;;;;;;10113003;28;20032;-64
2020/12/21 22:00:08;;;;;;;1.85;0.90;;;10.40;90.80;;;;;;10112510;28;20040;-63
2020/12/21 22:04:58;;;;;;;2.53;1.42;;;10.40;90.80;;;;;;10114937;28;20522;-62
2020/12/21 22:09:49;;;;;;;2.08;1.00;;;10.40;91.10;;;;;;10109892;28;20691;-63
2020/12/21 22:14:39;;;;;;;2.70;1.33;;;10.50;90.80;;;;;;10112983;28;20460;-63
2020/12/21 22:19:30;;;;;;;0.95;0.80;;;10.50;90.80;;;;;;10116245;28;20097;-63
2020/12/21 22:24:20;;;;;;;1.05;0.95;;;10.50;90.80;;;;;;10114116;28;20071;-64
2020/12/21 22:29:11;;;;;;;1.30;0.73;;;10.60;90.70;;;;;;10110756;28;20032;-63
2020/12/21 22:34:01;;;;;;;0.90;0.70;;;10.60;90.80;;;;;;10113544;28;20127;-63
2020/12/21 22:38:52;;;;;;;1.60;1.10;;;10.70;90.70;;;;;;10113407;28;20086;-63
2020/12/21 22:43:43;;;;;;;1.60;0.80;;;10.70;90.70;;;;;;10113325;28;20031;-62
2020/12/21 22:48:33;;;;;;;1.83;0.90;;;10.70;90.80;;;;;;10110955;28;20071;-63
2020/12/21 22:53:24;;;;;;;2.03;0.88;;;10.70;90.70;;;;;;10113680;28;20024;-64
2020/12/21 22:58:14;;;;;;;2.45;1.60;;;10.80;90.70;;;;;;10110388;28;20044;-64
2020/12/21 23:03:05;;;;;;;0.80;0.80;;;10.80;90.60;;;;;;10114109;28;20062;-64
2020/12/21 23:07:56;;;;;;;1.55;0.80;;;10.90;90.50;;;;;;10108745;28;20044;-64
2020/12/21 23:12:46;;;;;;;2.25;1.15;;;10.90;90.50;;;;;;10108738;28;20052;-64
2020/12/21 23:17:37;;;;;;;0.90;0.60;;;11.00;90.40;;;;;;10109937;28;20060;-64
2020/12/21 23:22:28;;;;;;;1.23;0.57;;;11.00;90.50;;;;;;10108198;28;20039;-62
2020/12/21 23:27:19;;;;;;;1.25;0.80;;;11.00;90.50;;;;;;10104280;28;20097;-63
2020/12/21 23:32:10;;;;;;;1.15;0.57;;;11.10;90.40;;;;;;10112119;28;20514;-62
2020/12/21 23:37:00;;;;;;;0.98;0.80;;;11.10;90.40;;;;;;10110844;28;20039;-63
2020/12/21 23:41:51;;;;;;;1.33;0.57;;;11.10;90.40;;;;;;10106722;28;20033;-63
2020/12/21 23:46:41;;;;;;;1.25;0.82;;;11.20;90.40;;;;;;10108908;28;20508;-64
2020/12/21 23:51:32;;;;;;;1.40;0.80;;;11.20;90.40;;;;;;10109048;28;20043;-63
2020/12/21 23:56:23;;;;;;;1.83;0.68;;;11.20;90.30;;;;;;10110275;28;20085;-63
